sensor_id;sensor_type;location;lat;lon;timestamp;P1;durP1;ratioP1;P2;durP2;ratioP2
4603;SDS011;2314;48.272;11.562;2024-02-14T00:02:03;7.10;;;4.07;;
4603;SDS011;2314;48.272;11.562;2024-02-14T00:04:31;8.10;;;3.93;;
4603;SDS011;2314;48.272;11.562;2024-02-14T00:06:58;7.90;;;3.60;;
4603;SDS011;2314;48.272;11.562;2024-02-14T00:09:25;6.50;;;4.20;;
4603;SDS011;2314;48.272;11.562;2024-02-14T00:11:52;7.37;;;3.80;;
4603;SDS011;2314;48.272;11.562;2024-02-14T00:14:19;7.17;;;3.53;;
4603;SDS011;2314;48.272;11.562;2024-02-14T00:16:47;5.37;;;3.30;;
4603;SDS011;2314;48.272;11.562;2024-02-14T00:19:16;9.70;;;3.63;;
4603;SDS011;2314;48.272;11.562;2024-02-14T00:21:43;9.10;;;4.30;;
4603;SDS011;2314;48.272;11.562;2024-02-14T00:24:10;9.80;;;4.13;;
4603;SDS011;2314;48.272;11.562;2024-02-14T00:26:37;8.60;;;4.67;;
4603;SDS011;2314;48.272;11.562;2024-02-14T00:29:04;20.37;;;4.50;;
4603;SDS011;2314;48.272;11.562;2024-02-14T00:31:31;11.17;;;6.10;;
4603;SDS011;2314;48.272;11.562;2024-02-14T00:33:59;8.17;;;4.80;;
4603;SDS011;2314;48.272;11.562;2024-02-14T00:36:26;7.47;;;4.30;;
4603;SDS011;2314;48.272;11.562;2024-02-14T00:38:53;10.57;;;4.70;;
4603;SDS011;2314;48.272;11.562;2024-02-14T00:41:20;11.97;;;5.00;;
4603;SDS011;2314;48.272;11.562;2024-02-14T00:43:48;9.67;;;4.90;;
4603;SDS011;2314;48.272;11.562;2024-02-14T00:46:15;12.63;;;7.80;;
4603;SDS011;2314;48.272;11.562;2024-02-14T00:48:43;9.20;;;4.67;;
4603;SDS011;2314;48.272;11.562;2024-02-14T00:51:11;8.60;;;5.23;;
4603;SDS011;2314;48.272;11.562;2024-02-14T00:53:38;9.27;;;5.30;;
4603;SDS011;2314;48.272;11.562;2024-02-14T00:56:06;7.10;;;5.10;;
4603;SDS011;2314;48.272;11.562;2024-02-14T00:58:33;7.30;;;4.60;;
4603;SDS011;2314;48.272;11.562;2024-02-14T01:01:00;11.20;;;5.60;;
4603;SDS011;2314;48.272;11.562;2024-02-14T01:03:27;8.80;;;4.93;;
4603;SDS011;2314;48.272;11.562;2024-02-14T01:05:54;13.10;;;5.63;;
4603;SDS011;2314;48.272;11.562;2024-02-14T01:08:22;10.73;;;6.43;;
4603;SDS011;2314;48.272;11.562;2024-02-14T01:10:49;12.40;;;4.40;;
4603;SDS011;2314;48.272;11.562;2024-02-14T01:13:16;7.27;;;4.60;;
4603;SDS011;2314;48.272;11.562;2024-02-14T01:15:43;8.50;;;5.13;;
4603;SDS011;2314;48.272;11.562;2024-02-14T01:18:10;9.07;;;5.17;;
4603;SDS011;2314;48.272;11.562;2024-02-14T01:20:37;8.33;;;5.67;;
4603;SDS011;2314;48.272;11.562;2024-02-14T01:23:05;16.37;;;5.80;;
4603;SDS011;2314;48.272;11.562;2024-02-14T01:25:33;8.37;;;5.47;;
4603;SDS011;2314;48.272;11.562;2024-02-14T01:28:00;7.33;;;4.40;;
4603;SDS011;2314;48.272;11.562;2024-02-14T01:30:27;6.83;;;4.60;;
4603;SDS011;2314;48.272;11.562;2024-02-14T01:32:54;9.00;;;5.30;;
4603;SDS011;2314;48.272;11.562;2024-02-14T01:35:21;13.33;;;4.77;;
4603;SDS011;2314;48.272;11.562;2024-02-14T01:37:48;10.37;;;4.70;;
4603;SDS011;2314;48.272;11.562;2024-02-14T01:40:17;8.53;;;4.43;;
4603;SDS011;2314;48.272;11.562;2024-02-14T01:42:46;8.40;;;4.57;;
4603;SDS011;2314;48.272;11.562;2024-02-14T01:45:13;8.73;;;5.17;;
4603;SDS011;2314;48.272;11.562;2024-02-14T01:47:40;7.90;;;4.60;;
4603;SDS011;2314;48.272;11.562;2024-02-14T01:50:07;7.90;;;3.77;;
4603;SDS011;2314;48.272;11.562;2024-02-14T01:52:36;6.50;;;3.90;;
4603;SDS011;2314;48.272;11.562;2024-02-14T01:55:05;7.17;;;4.03;;
4603;SDS011;2314;48.272;11.562;2024-02-14T01:57:34;7.80;;;4.80;;
4603;SDS011;2314;48.272;11.562;2024-02-14T02:00:04;9.03;;;5.00;;
4603;SDS011;2314;48.272;11.562;2024-02-14T02:02:34;12.10;;;4.40;;
4603;SDS011;2314;48.272;11.562;2024-02-14T02:05:04;6.40;;;3.80;;
4603;SDS011;2314;48.272;11.562;2024-02-14T02:07:32;7.03;;;3.60;;
4603;SDS011;2314;48.272;11.562;2024-02-14T02:09:59;6.40;;;3.93;;
4603;SDS011;2314;48.272;11.562;2024-02-14T02:12:26;6.93;;;4.20;;
4603;SDS011;2314;48.272;11.562;2024-02-14T02:14:53;8.10;;;3.77;;
4603;SDS011;2314;48.272;11.562;2024-02-14T02:17:21;12.23;;;4.83;;
4603;SDS011;2314;48.272;11.562;2024-02-14T02:19:49;12.43;;;4.33;;
4603;SDS011;2314;48.272;11.562;2024-02-14T02:22:19;7.77;;;3.30;;
4603;SDS011;2314;48.272;11.562;2024-02-14T02:24:47;9.20;;;4.63;;
4603;SDS011;2314;48.272;11.562;2024-02-14T02:27:16;8.40;;;4.00;;
4603;SDS011;2314;48.272;11.562;2024-02-14T02:29:43;6.17;;;3.17;;
4603;SDS011;2314;48.272;11.562;2024-02-14T02:32:11;6.73;;;3.40;;
4603;SDS011;2314;48.272;11.562;2024-02-14T02:34:38;5.60;;;3.10;;
4603;SDS011;2314;48.272;11.562;2024-02-14T02:37:05;7.70;;;2.47;;
4603;SDS011;2314;48.272;11.562;2024-02-14T02:39:32;5.53;;;2.90;;
4603;SDS011;2314;48.272;11.562;2024-02-14T02:42:02;4.70;;;2.40;;
4603;SDS011;2314;48.272;11.562;2024-02-14T02:44:30;5.23;;;2.87;;
4603;SDS011;2314;48.272;11.562;2024-02-14T02:46:57;5.63;;;2.97;;
4603;SDS011;2314;48.272;11.562;2024-02-14T02:49:25;5.43;;;2.80;;
4603;SDS011;2314;48.272;11.562;2024-02-14T02:51:54;5.80;;;2.97;;
4603;SDS011;2314;48.272;11.562;2024-02-14T02:54:21;5.43;;;2.43;;
4603;SDS011;2314;48.272;11.562;2024-02-14T02:56:48;5.87;;;2.77;;
4603;SDS011;2314;48.272;11.562;2024-02-14T02:59:17;6.80;;;2.50;;
4603;SDS011;2314;48.272;11.562;2024-02-14T03:01:44;6.33;;;3.63;;
4603;SDS011;2314;48.272;11.562;2024-02-14T03:04:11;7.30;;;2.73;;
4603;SDS011;2314;48.272;11.562;2024-02-14T03:06:39;3.70;;;2.50;;
4603;SDS011;2314;48.272;11.562;2024-02-14T03:09:08;5.90;;;2.20;;
4603;SDS011;2314;48.272;11.562;2024-02-14T03:11:35;6.80;;;2.90;;
4603;SDS011;2314;48.272;11.562;2024-02-14T03:14:02;4.00;;;2.70;;
4603;SDS011;2314;48.272;11.562;2024-02-14T03:16:30;4.27;;;2.47;;
4603;SDS011;2314;48.272;11.562;2024-02-14T03:18:57;3.63;;;2.57;;
4603;SDS011;2314;48.272;11.562;2024-02-14T03:21:25;5.43;;;2.77;;
4603;SDS011;2314;48.272;11.562;2024-02-14T03:23:53;4.90;;;2.60;;
4603;SDS011;2314;48.272;11.562;2024-02-14T03:26:20;4.97;;;2.23;;
4603;SDS011;2314;48.272;11.562;2024-02-14T03:28:47;4.67;;;2.43;;
4603;SDS011;2314;48.272;11.562;2024-02-14T03:31:14;4.67;;;2.70;;
4603;SDS011;2314;48.272;11.562;2024-02-14T03:33:43;5.97;;;2.47;;
4603;SDS011;2314;48.272;11.562;2024-02-14T03:36:10;6.03;;;2.47;;
4603;SDS011;2314;48.272;11.562;2024-02-14T03:38:37;6.67;;;3.10;;
4603;SDS011;2314;48.272;11.562;2024-02-14T03:41:04;4.10;;;2.53;;
4603;SDS011;2314;48.272;11.562;2024-02-14T03:43:30;2.80;;;2.00;;
4603;SDS011;2314;48.272;11.562;2024-02-14T03:45:58;4.40;;;2.60;;
4603;SDS011;2314;48.272;11.562;2024-02-14T03:48:25;5.70;;;1.93;;
4603;SDS011;2314;48.272;11.562;2024-02-14T03:50:53;4.50;;;2.40;;
4603;SDS011;2314;48.272;11.562;2024-02-14T03:53:20;5.43;;;2.27;;
4603;SDS011;2314;48.272;11.562;2024-02-14T03:55:56;4.47;;;2.17;;
4603;SDS011;2314;48.272;11.562;2024-02-14T03:58:23;4.40;;;2.13;;
4603;SDS011;2314;48.272;11.562;2024-02-14T04:00:50;3.20;;;2.40;;
4603;SDS011;2314;48.272;11.562;2024-02-14T04:03:17;3.53;;;2.03;;
4603;SDS011;2314;48.272;11.562;2024-02-14T04:05:44;3.60;;;2.00;;
4603;SDS011;2314;48.272;11.562;2024-02-14T04:08:14;3.53;;;1.80;;
4603;SDS011;2314;48.272;11.562;2024-02-14T04:10:41;3.80;;;2.03;;
4603;SDS011;2314;48.272;11.562;2024-02-14T04:13:08;5.30;;;2.27;;
4603;SDS011;2314;48.272;11.562;2024-02-14T04:15:35;6.10;;;1.80;;
4603;SDS011;2314;48.272;11.562;2024-02-14T04:18:03;5.17;;;1.80;;
4603;SDS011;2314;48.272;11.562;2024-02-14T04:20:31;2.40;;;1.40;;
4603;SDS011;2314;48.272;11.562;2024-02-14T04:22:58;5.77;;;1.67;;
4603;SDS011;2314;48.272;11.562;2024-02-14T04:25:26;3.10;;;1.53;;
4603;SDS011;2314;48.272;11.562;2024-02-14T04:27:53;4.07;;;1.40;;
4603;SDS011;2314;48.272;11.562;2024-02-14T04:30:20;4.10;;;1.50;;
4603;SDS011;2314;48.272;11.562;2024-02-14T04:32:48;3.93;;;1.50;;
4603;SDS011;2314;48.272;11.562;2024-02-14T04:35:16;3.43;;;1.50;;
4603;SDS011;2314;48.272;11.562;2024-02-14T04:37:43;4.53;;;1.77;;
4603;SDS011;2314;48.272;11.562;2024-02-14T04:40:11;2.53;;;1.30;;
4603;SDS011;2314;48.272;11.562;2024-02-14T04:42:40;2.27;;;1.20;;
4603;SDS011;2314;48.272;11.562;2024-02-14T04:45:08;2.80;;;1.20;;
4603;SDS011;2314;48.272;11.562;2024-02-14T04:47:35;2.30;;;1.40;;
4603;SDS011;2314;48.272;11.562;2024-02-14T04:50:02;3.47;;;1.50;;
4603;SDS011;2314;48.272;11.562;2024-02-14T04:52:30;2.80;;;1.27;;
4603;SDS011;2314;48.272;11.562;2024-02-14T04:54:57;7.30;;;1.20;;
4603;SDS011;2314;48.272;11.562;2024-02-14T04:57:24;4.63;;;1.77;;
4603;SDS011;2314;48.272;11.562;2024-02-14T04:59:52;3.60;;;2.07;;
4603;SDS011;2314;48.272;11.562;2024-02-14T05:02:19;6.57;;;2.53;;
4603;SDS011;2314;48.272;11.562;2024-02-14T05:04:46;5.23;;;2.37;;
4603;SDS011;2314;48.272;11.562;2024-02-14T05:07:13;5.60;;;2.43;;
4603;SDS011;2314;48.272;11.562;2024-02-14T05:09:41;3.97;;;1.40;;
4603;SDS011;2314;48.272;11.562;2024-02-14T05:12:09;5.67;;;2.30;;
4603;SDS011;2314;48.272;11.562;2024-02-14T05:14:37;4.43;;;1.60;;
4603;SDS011;2314;48.272;11.562;2024-02-14T05:17:06;2.80;;;1.37;;
4603;SDS011;2314;48.272;11.562;2024-02-14T05:19:34;2.20;;;1.40;;
4603;SDS011;2314;48.272;11.562;2024-02-14T05:22:01;2.63;;;1.10;;
4603;SDS011;2314;48.272;11.562;2024-02-14T05:24:28;2.70;;;1.00;;
4603;SDS011;2314;48.272;11.562;2024-02-14T05:26:56;2.57;;;1.10;;
4603;SDS011;2314;48.272;11.562;2024-02-14T05:29:23;2.07;;;1.17;;
4603;SDS011;2314;48.272;11.562;2024-02-14T05:31:50;1.73;;;1.03;;
4603;SDS011;2314;48.272;11.562;2024-02-14T05:34:21;1.87;;;1.13;;
4603;SDS011;2314;48.272;11.562;2024-02-14T05:36:48;2.57;;;1.00;;
4603;SDS011;2314;48.272;11.562;2024-02-14T05:39:16;2.43;;;1.03;;
4603;SDS011;2314;48.272;11.562;2024-02-14T05:41:44;4.33;;;1.00;;
4603;SDS011;2314;48.272;11.562;2024-02-14T05:44:11;2.90;;;1.00;;
4603;SDS011;2314;48.272;11.562;2024-02-14T05:46:38;2.30;;;1.17;;
4603;SDS011;2314;48.272;11.562;2024-02-14T05:49:06;5.93;;;1.23;;
4603;SDS011;2314;48.272;11.562;2024-02-14T05:51:35;4.70;;;1.40;;
4603;SDS011;2314;48.272;11.562;2024-02-14T05:54:02;2.23;;;1.10;;
4603;SDS011;2314;48.272;11.562;2024-02-14T05:56:29;6.30;;;1.40;;
4603;SDS011;2314;48.272;11.562;2024-02-14T05:58:56;1.80;;;1.00;;
4603;SDS011;2314;48.272;11.562;2024-02-14T06:01:23;3.60;;;1.33;;
4603;SDS011;2314;48.272;11.562;2024-02-14T06:03:50;2.57;;;1.10;;
4603;SDS011;2314;48.272;11.562;2024-02-14T06:06:17;3.87;;;1.53;;
4603;SDS011;2314;48.272;11.562;2024-02-14T06:08:45;1.97;;;1.10;;
4603;SDS011;2314;48.272;11.562;2024-02-14T06:11:12;5.00;;;1.30;;
4603;SDS011;2314;48.272;11.562;2024-02-14T06:13:41;2.80;;;1.47;;
4603;SDS011;2314;48.272;11.562;2024-02-14T06:16:09;3.27;;;1.20;;
4603;SDS011;2314;48.272;11.562;2024-02-14T06:18:36;3.07;;;1.30;;
4603;SDS011;2314;48.272;11.562;2024-02-14T06:21:04;5.83;;;1.27;;
4603;SDS011;2314;48.272;11.562;2024-02-14T06:23:31;2.97;;;1.17;;
4603;SDS011;2314;48.272;11.562;2024-02-14T06:26:00;3.23;;;1.67;;
4603;SDS011;2314;48.272;11.562;2024-02-14T06:28:28;2.43;;;1.20;;
4603;SDS011;2314;48.272;11.562;2024-02-14T06:30:55;4.20;;;1.80;;
4603;SDS011;2314;48.272;11.562;2024-02-14T06:33:22;2.33;;;1.10;;
4603;SDS011;2314;48.272;11.562;2024-02-14T06:35:49;4.30;;;1.20;;
4603;SDS011;2314;48.272;11.562;2024-02-14T06:38:16;4.07;;;1.40;;
4603;SDS011;2314;48.272;11.562;2024-02-14T06:40:43;2.83;;;1.50;;
4603;SDS011;2314;48.272;11.562;2024-02-14T06:43:12;4.13;;;2.07;;
4603;SDS011;2314;48.272;11.562;2024-02-14T06:45:39;3.77;;;2.60;;
4603;SDS011;2314;48.272;11.562;2024-02-14T06:48:07;3.50;;;2.20;;
4603;SDS011;2314;48.272;11.562;2024-02-14T06:50:34;3.33;;;2.10;;
4603;SDS011;2314;48.272;11.562;2024-02-14T06:53:01;3.00;;;1.23;;
4603;SDS011;2314;48.272;11.562;2024-02-14T06:55:28;2.43;;;1.43;;
4603;SDS011;2314;48.272;11.562;2024-02-14T06:57:56;4.73;;;1.60;;
4603;SDS011;2314;48.272;11.562;2024-02-14T07:00:25;3.03;;;1.20;;
4603;SDS011;2314;48.272;11.562;2024-02-14T07:02:53;3.40;;;1.37;;
4603;SDS011;2314;48.272;11.562;2024-02-14T07:05:20;3.27;;;1.60;;
4603;SDS011;2314;48.272;11.562;2024-02-14T07:07:47;2.87;;;1.30;;
4603;SDS011;2314;48.272;11.562;2024-02-14T07:10:15;3.90;;;1.90;;
4603;SDS011;2314;48.272;11.562;2024-02-14T07:12:42;5.00;;;1.93;;
4603;SDS011;2314;48.272;11.562;2024-02-14T07:15:09;4.40;;;1.80;;
4603;SDS011;2314;48.272;11.562;2024-02-14T07:17:37;4.60;;;3.43;;
4603;SDS011;2314;48.272;11.562;2024-02-14T07:20:05;8.20;;;4.03;;
4603;SDS011;2314;48.272;11.562;2024-02-14T07:22:34;4.47;;;2.63;;
4603;SDS011;2314;48.272;11.562;2024-02-14T07:25:01;5.50;;;2.53;;
4603;SDS011;2314;48.272;11.562;2024-02-14T07:27:30;4.17;;;2.30;;
4603;SDS011;2314;48.272;11.562;2024-02-14T07:29:57;3.57;;;1.90;;
4603;SDS011;2314;48.272;11.562;2024-02-14T07:32:24;4.20;;;1.83;;
4603;SDS011;2314;48.272;11.562;2024-02-14T07:34:54;7.63;;;2.27;;
4603;SDS011;2314;48.272;11.562;2024-02-14T07:37:21;9.00;;;2.03;;
4603;SDS011;2314;48.272;11.562;2024-02-14T07:39:48;4.87;;;1.80;;
4603;SDS011;2314;48.272;11.562;2024-02-14T07:42:15;5.80;;;1.77;;
4603;SDS011;2314;48.272;11.562;2024-02-14T07:44:41;5.23;;;2.13;;
4603;SDS011;2314;48.272;11.562;2024-02-14T07:47:08;4.03;;;1.67;;
4603;SDS011;2314;48.272;11.562;2024-02-14T07:49:35;5.10;;;2.13;;
4603;SDS011;2314;48.272;11.562;2024-02-14T07:52:04;4.90;;;2.10;;
4603;SDS011;2314;48.272;11.562;2024-02-14T07:54:32;7.43;;;3.10;;
4603;SDS011;2314;48.272;11.562;2024-02-14T07:56:59;23.07;;;6.47;;
4603;SDS011;2314;48.272;11.562;2024-02-14T07:59:26;18.43;;;7.60;;
4603;SDS011;2314;48.272;11.562;2024-02-14T08:01:53;15.90;;;6.77;;
4603;SDS011;2314;48.272;11.562;2024-02-14T08:04:21;9.80;;;4.40;;
4603;SDS011;2314;48.272;11.562;2024-02-14T08:06:48;6.83;;;2.93;;
4603;SDS011;2314;48.272;11.562;2024-02-14T08:09:16;3.63;;;2.00;;
4603;SDS011;2314;48.272;11.562;2024-02-14T08:11:44;4.40;;;2.00;;
4603;SDS011;2314;48.272;11.562;2024-02-14T08:14:10;5.87;;;2.20;;
4603;SDS011;2314;48.272;11.562;2024-02-14T08:16:38;6.67;;;2.40;;
4603;SDS011;2314;48.272;11.562;2024-02-14T08:19:05;4.07;;;1.67;;
4603;SDS011;2314;48.272;11.562;2024-02-14T08:21:32;4.53;;;2.00;;
4603;SDS011;2314;48.272;11.562;2024-02-14T08:23:59;4.10;;;2.17;;
4603;SDS011;2314;48.272;11.562;2024-02-14T08:26:27;3.67;;;2.00;;
4603;SDS011;2314;48.272;11.562;2024-02-14T08:28:54;5.67;;;2.10;;
4603;SDS011;2314;48.272;11.562;2024-02-14T08:31:21;5.67;;;2.40;;
4603;SDS011;2314;48.272;11.562;2024-02-14T08:33:48;4.00;;;2.23;;
4603;SDS011;2314;48.272;11.562;2024-02-14T08:36:15;5.50;;;3.10;;
4603;SDS011;2314;48.272;11.562;2024-02-14T08:38:44;13.00;;;5.33;;
4603;SDS011;2314;48.272;11.562;2024-02-14T08:41:11;6.80;;;3.13;;
4603;SDS011;2314;48.272;11.562;2024-02-14T08:43:40;5.87;;;3.00;;
4603;SDS011;2314;48.272;11.562;2024-02-14T08:46:09;6.63;;;2.67;;
4603;SDS011;2314;48.272;11.562;2024-02-14T08:48:36;3.80;;;2.17;;
4603;SDS011;2314;48.272;11.562;2024-02-14T08:51:06;3.80;;;1.60;;
4603;SDS011;2314;48.272;11.562;2024-02-14T08:53:35;3.50;;;1.43;;
4603;SDS011;2314;48.272;11.562;2024-02-14T08:56:02;4.30;;;1.43;;
4603;SDS011;2314;48.272;11.562;2024-02-14T08:58:30;2.70;;;1.20;;
4603;SDS011;2314;48.272;11.562;2024-02-14T09:00:58;5.63;;;1.40;;
4603;SDS011;2314;48.272;11.562;2024-02-14T09:03:25;4.23;;;1.40;;
4603;SDS011;2314;48.272;11.562;2024-02-14T09:05:52;4.50;;;1.67;;
4603;SDS011;2314;48.272;11.562;2024-02-14T09:08:19;2.70;;;1.37;;
4603;SDS011;2314;48.272;11.562;2024-02-14T09:10:46;4.90;;;1.27;;
4603;SDS011;2314;48.272;11.562;2024-02-14T09:13:13;6.63;;;1.80;;
4603;SDS011;2314;48.272;11.562;2024-02-14T09:15:40;11.03;;;3.33;;
4603;SDS011;2314;48.272;11.562;2024-02-14T09:18:09;3.67;;;1.70;;
4603;SDS011;2314;48.272;11.562;2024-02-14T09:20:36;2.57;;;1.30;;
4603;SDS011;2314;48.272;11.562;2024-02-14T09:23:03;4.50;;;1.57;;
4603;SDS011;2314;48.272;11.562;2024-02-14T09:25:31;2.40;;;1.10;;
4603;SDS011;2314;48.272;11.562;2024-02-14T09:27:58;2.80;;;0.87;;
4603;SDS011;2314;48.272;11.562;2024-02-14T09:30:25;2.43;;;0.90;;
4603;SDS011;2314;48.272;11.562;2024-02-14T09:32:51;5.10;;;1.20;;
4603;SDS011;2314;48.272;11.562;2024-02-14T09:35:20;3.57;;;1.13;;
4603;SDS011;2314;48.272;11.562;2024-02-14T09:37:47;5.97;;;1.30;;
4603;SDS011;2314;48.272;11.562;2024-02-14T09:40:14;3.73;;;1.23;;
4603;SDS011;2314;48.272;11.562;2024-02-14T09:42:43;5.00;;;1.47;;
4603;SDS011;2314;48.272;11.562;2024-02-14T09:45:13;3.17;;;1.10;;
4603;SDS011;2314;48.272;11.562;2024-02-14T09:47:41;2.27;;;1.23;;
4603;SDS011;2314;48.272;11.562;2024-02-14T09:50:09;3.47;;;1.70;;
4603;SDS011;2314;48.272;11.562;2024-02-14T09:52:39;3.43;;;1.43;;
4603;SDS011;2314;48.272;11.562;2024-02-14T09:55:08;3.13;;;1.20;;
4603;SDS011;2314;48.272;11.562;2024-02-14T09:57:36;2.40;;;1.00;;
4603;SDS011;2314;48.272;11.562;2024-02-14T10:00:09;3.33;;;1.40;;
4603;SDS011;2314;48.272;11.562;2024-02-14T10:02:38;2.30;;;1.20;;
4603;SDS011;2314;48.272;11.562;2024-02-14T10:05:05;4.63;;;1.60;;
4603;SDS011;2314;48.272;11.562;2024-02-14T10:07:40;8.73;;;2.07;;
4603;SDS011;2314;48.272;11.562;2024-02-14T10:10:08;5.67;;;1.73;;
4603;SDS011;2314;48.272;11.562;2024-02-14T10:12:36;4.13;;;1.30;;
4603;SDS011;2314;48.272;11.562;2024-02-14T10:15:03;3.73;;;1.47;;
4603;SDS011;2314;48.272;11.562;2024-02-14T10:17:32;2.87;;;1.10;;
4603;SDS011;2314;48.272;11.562;2024-02-14T10:20:00;4.00;;;1.17;;
4603;SDS011;2314;48.272;11.562;2024-02-14T10:22:33;6.23;;;1.60;;
4603;SDS011;2314;48.272;11.562;2024-02-14T10:25:02;7.00;;;3.20;;
4603;SDS011;2314;48.272;11.562;2024-02-14T10:27:33;4.93;;;2.40;;
4603;SDS011;2314;48.272;11.562;2024-02-14T10:30:02;4.13;;;1.50;;
4603;SDS011;2314;48.272;11.562;2024-02-14T10:32:34;2.40;;;1.30;;
4603;SDS011;2314;48.272;11.562;2024-02-14T10:35:01;2.23;;;1.20;;
4603;SDS011;2314;48.272;11.562;2024-02-14T10:37:33;2.30;;;1.10;;
4603;SDS011;2314;48.272;11.562;2024-02-14T10:40:02;4.00;;;1.90;;
4603;SDS011;2314;48.272;11.562;2024-02-14T10:42:31;2.90;;;1.20;;
4603;SDS011;2314;48.272;11.562;2024-02-14T10:44:59;2.57;;;1.00;;
4603;SDS011;2314;48.272;11.562;2024-02-14T10:47:29;3.40;;;1.30;;
4603;SDS011;2314;48.272;11.562;2024-02-14T10:50:00;2.23;;;0.97;;
4603;SDS011;2314;48.272;11.562;2024-02-14T10:52:30;2.10;;;1.00;;
4603;SDS011;2314;48.272;11.562;2024-02-14T10:54:59;2.80;;;1.00;;
4603;SDS011;2314;48.272;11.562;2024-02-14T10:57:31;4.93;;;1.30;;
4603;SDS011;2314;48.272;11.562;2024-02-14T10:59:58;2.27;;;0.90;;
4603;SDS011;2314;48.272;11.562;2024-02-14T11:02:30;1.63;;;0.70;;
4603;SDS011;2314;48.272;11.562;2024-02-14T11:04:57;2.33;;;1.10;;
4603;SDS011;2314;48.272;11.562;2024-02-14T11:07:27;1.83;;;0.87;;
4603;SDS011;2314;48.272;11.562;2024-02-14T11:10:04;4.17;;;1.37;;
4603;SDS011;2314;48.272;11.562;2024-02-14T11:12:32;5.47;;;1.20;;
4603;SDS011;2314;48.272;11.562;2024-02-14T11:15:01;2.73;;;1.17;;
4603;SDS011;2314;48.272;11.562;2024-02-14T11:17:36;4.23;;;1.70;;
4603;SDS011;2314;48.272;11.562;2024-02-14T11:20:11;3.00;;;1.13;;
4603;SDS011;2314;48.272;11.562;2024-02-14T11:22:49;2.43;;;1.00;;
4603;SDS011;2314;48.272;11.562;2024-02-14T11:25:23;2.70;;;1.10;;
4603;SDS011;2314;48.272;11.562;2024-02-14T11:27:55;6.50;;;1.13;;
4603;SDS011;2314;48.272;11.562;2024-02-14T11:30:26;2.20;;;0.90;;
4603;SDS011;2314;48.272;11.562;2024-02-14T11:32:59;3.47;;;0.90;;
4603;SDS011;2314;48.272;11.562;2024-02-14T11:35:40;2.30;;;0.90;;
4603;SDS011;2314;48.272;11.562;2024-02-14T11:38:07;1.90;;;0.80;;
4603;SDS011;2314;48.272;11.562;2024-02-14T11:40:36;4.47;;;1.67;;
4603;SDS011;2314;48.272;11.562;2024-02-14T11:43:04;2.17;;;0.87;;
4603;SDS011;2314;48.272;11.562;2024-02-14T11:45:32;3.10;;;0.90;;
4603;SDS011;2314;48.272;11.562;2024-02-14T11:47:59;6.30;;;1.10;;
4603;SDS011;2314;48.272;11.562;2024-02-14T11:50:26;2.00;;;0.90;;
4603;SDS011;2314;48.272;11.562;2024-02-14T11:52:54;1.70;;;0.90;;
4603;SDS011;2314;48.272;11.562;2024-02-14T11:55:27;2.10;;;0.97;;
4603;SDS011;2314;48.272;11.562;2024-02-14T11:57:56;1.97;;;0.83;;
4603;SDS011;2314;48.272;11.562;2024-02-14T12:00:23;2.00;;;0.83;;
4603;SDS011;2314;48.272;11.562;2024-02-14T12:02:50;2.33;;;0.70;;
4603;SDS011;2314;48.272;11.562;2024-02-14T12:05:18;1.90;;;0.87;;
4603;SDS011;2314;48.272;11.562;2024-02-14T12:07:45;1.83;;;0.80;;
4603;SDS011;2314;48.272;11.562;2024-02-14T12:10:13;2.63;;;0.70;;
4603;SDS011;2314;48.272;11.562;2024-02-14T12:12:44;2.10;;;0.90;;
4603;SDS011;2314;48.272;11.562;2024-02-14T12:15:13;4.63;;;1.30;;
4603;SDS011;2314;48.272;11.562;2024-02-14T12:17:41;1.60;;;0.80;;
4603;SDS011;2314;48.272;11.562;2024-02-14T12:20:08;3.60;;;0.70;;
4603;SDS011;2314;48.272;11.562;2024-02-14T12:22:38;2.17;;;0.80;;
4603;SDS011;2314;48.272;11.562;2024-02-14T12:25:06;1.60;;;0.67;;
4603;SDS011;2314;48.272;11.562;2024-02-14T12:27:36;1.70;;;0.70;;
4603;SDS011;2314;48.272;11.562;2024-02-14T12:30:04;1.90;;;0.70;;
4603;SDS011;2314;48.272;11.562;2024-02-14T12:32:36;1.83;;;0.70;;
4603;SDS011;2314;48.272;11.562;2024-02-14T12:35:03;1.73;;;0.60;;
4603;SDS011;2314;48.272;11.562;2024-02-14T12:37:33;1.50;;;0.70;;
4603;SDS011;2314;48.272;11.562;2024-02-14T12:40:00;1.70;;;0.60;;
4603;SDS011;2314;48.272;11.562;2024-02-14T12:42:27;4.33;;;0.70;;
4603;SDS011;2314;48.272;11.562;2024-02-14T12:44:54;2.10;;;0.73;;
4603;SDS011;2314;48.272;11.562;2024-02-14T12:47:21;2.03;;;0.90;;
4603;SDS011;2314;48.272;11.562;2024-02-14T12:49:51;2.33;;;0.70;;
4603;SDS011;2314;48.272;11.562;2024-02-14T12:52:19;6.70;;;1.00;;
4603;SDS011;2314;48.272;11.562;2024-02-14T12:54:46;2.53;;;0.97;;
4603;SDS011;2314;48.272;11.562;2024-02-14T12:57:13;2.50;;;0.93;;
4603;SDS011;2314;48.272;11.562;2024-02-14T12:59:40;2.50;;;1.00;;
4603;SDS011;2314;48.272;11.562;2024-02-14T13:02:06;3.27;;;0.80;;
4603;SDS011;2314;48.272;11.562;2024-02-14T13:04:33;3.80;;;0.70;;
4603;SDS011;2314;48.272;11.562;2024-02-14T13:07:02;2.37;;;0.80;;
4603;SDS011;2314;48.272;11.562;2024-02-14T13:09:30;2.13;;;0.80;;
4603;SDS011;2314;48.272;11.562;2024-02-14T13:11:56;2.10;;;0.80;;
4603;SDS011;2314;48.272;11.562;2024-02-14T13:14:23;2.27;;;0.83;;
4603;SDS011;2314;48.272;11.562;2024-02-14T13:16:51;1.57;;;0.67;;
4603;SDS011;2314;48.272;11.562;2024-02-14T13:19:18;2.70;;;0.90;;
4603;SDS011;2314;48.272;11.562;2024-02-14T13:21:44;5.27;;;1.23;;
4603;SDS011;2314;48.272;11.562;2024-02-14T13:24:14;3.80;;;1.20;;
4603;SDS011;2314;48.272;11.562;2024-02-14T13:26:41;2.17;;;0.80;;
4603;SDS011;2314;48.272;11.562;2024-02-14T13:29:09;2.63;;;0.80;;
4603;SDS011;2314;48.272;11.562;2024-02-14T13:31:36;1.70;;;0.70;;
4603;SDS011;2314;48.272;11.562;2024-02-14T13:34:03;1.60;;;0.70;;
4603;SDS011;2314;48.272;11.562;2024-02-14T13:36:30;2.67;;;0.83;;
4603;SDS011;2314;48.272;11.562;2024-02-14T13:38:57;2.33;;;1.00;;
4603;SDS011;2314;48.272;11.562;2024-02-14T13:41:26;2.00;;;0.80;;
4603;SDS011;2314;48.272;11.562;2024-02-14T13:43:54;1.60;;;0.80;;
4603;SDS011;2314;48.272;11.562;2024-02-14T13:46:20;2.80;;;1.00;;
4603;SDS011;2314;48.272;11.562;2024-02-14T13:48:51;2.80;;;1.10;;
4603;SDS011;2314;48.272;11.562;2024-02-14T13:51:18;1.93;;;0.80;;
4603;SDS011;2314;48.272;11.562;2024-02-14T13:53:45;2.43;;;1.00;;
4603;SDS011;2314;48.272;11.562;2024-02-14T13:56:12;2.90;;;1.30;;
4603;SDS011;2314;48.272;11.562;2024-02-14T13:58:42;3.73;;;1.00;;
4603;SDS011;2314;48.272;11.562;2024-02-14T14:01:09;3.27;;;1.43;;
4603;SDS011;2314;48.272;11.562;2024-02-14T14:03:36;4.17;;;1.10;;
4603;SDS011;2314;48.272;11.562;2024-02-14T14:06:03;1.90;;;0.80;;
4603;SDS011;2314;48.272;11.562;2024-02-14T14:08:33;3.63;;;0.70;;
4603;SDS011;2314;48.272;11.562;2024-02-14T14:11:02;1.53;;;0.80;;
4603;SDS011;2314;48.272;11.562;2024-02-14T14:13:29;2.90;;;0.93;;
4603;SDS011;2314;48.272;11.562;2024-02-14T14:15:59;2.43;;;0.90;;
4603;SDS011;2314;48.272;11.562;2024-02-14T14:18:26;2.63;;;1.00;;
4603;SDS011;2314;48.272;11.562;2024-02-14T14:20:53;4.30;;;0.80;;
4603;SDS011;2314;48.272;11.562;2024-02-14T14:23:20;1.70;;;0.73;;
4603;SDS011;2314;48.272;11.562;2024-02-14T14:25:47;1.90;;;0.90;;
4603;SDS011;2314;48.272;11.562;2024-02-14T14:28:14;1.60;;;0.80;;
4603;SDS011;2314;48.272;11.562;2024-02-14T14:30:42;2.03;;;0.80;;
4603;SDS011;2314;48.272;11.562;2024-02-14T14:33:11;1.67;;;0.70;;
4603;SDS011;2314;48.272;11.562;2024-02-14T14:35:38;2.20;;;0.80;;
4603;SDS011;2314;48.272;11.562;2024-02-14T14:38:05;4.37;;;0.90;;
4603;SDS011;2314;48.272;11.562;2024-02-14T14:40:32;2.40;;;0.80;;
4603;SDS011;2314;48.272;11.562;2024-02-14T14:42:59;2.07;;;0.90;;
4603;SDS011;2314;48.272;11.562;2024-02-14T14:45:26;1.97;;;0.90;;
4603;SDS011;2314;48.272;11.562;2024-02-14T14:47:54;2.43;;;0.90;;
4603;SDS011;2314;48.272;11.562;2024-02-14T14:50:22;4.13;;;0.90;;
4603;SDS011;2314;48.272;11.562;2024-02-14T14:52:50;1.90;;;0.70;;
4603;SDS011;2314;48.272;11.562;2024-02-14T14:55:17;2.23;;;1.13;;
4603;SDS011;2314;48.272;11.562;2024-02-14T14:57:44;2.03;;;0.80;;
4603;SDS011;2314;48.272;11.562;2024-02-14T15:00:11;1.90;;;1.00;;
4603;SDS011;2314;48.272;11.562;2024-02-14T15:02:39;1.80;;;0.73;;
4603;SDS011;2314;48.272;11.562;2024-02-14T15:05:08;2.20;;;0.90;;